Terminal Aerodrome Forecast
Issued by NWS

Home | Current Version | Previous Version | Graphics & Text | Print | Product List | Glossary On
Versions: 1 2 3 4 5 6 7 8 9 10 11 12 13 14 15 16 17 18 19 20 21 22 23 24 25 26
262
FTUS43 KDLH 292336
TAFHYR
TAF
KHYR 292336Z 3000/3024 04009KT P6SM SCT016
      TEMPO 3001/3003 BKN016
     FM300300 05005KT P6SM BKN013
     FM300500 04004KT 4SM BR OVC010
      TEMPO 3008/3012 3/4SM BR OVC006
     FM301400 06007KT P6SM SCT006
     FM301900 04010KT P6SM BKN035=

USA.gov is the U.S. government's official web portal to all federal, state and local government web resources and services.